createdAt,value
2023-03-07T00:01:37.182Z,18.30
2023-03-07T00:03:39.993Z,17.83
2023-03-07T00:05:43.141Z,18.67
2023-03-07T00:07:47.331Z,19.37
2023-03-07T00:09:50.394Z,18.33
2023-03-07T00:11:53.708Z,19.70
2023-03-07T00:13:56.842Z,19.43
2023-03-07T00:16:02.903Z,19.93
2023-03-07T00:18:05.863Z,18.97
2023-03-07T00:20:10.997Z,19.50
2023-03-07T00:22:14.726Z,19.50
2023-03-07T00:24:18.931Z,19.00
2023-03-07T00:26:23.890Z,18.87
2023-03-07T00:28:26.986Z,19.33
2023-03-07T00:30:29.784Z,19.53
2023-03-07T00:32:33.022Z,19.77
2023-03-07T00:34:36.125Z,19.50
2023-03-07T00:36:38.926Z,19.43
2023-03-07T00:38:42.720Z,20.80
2023-03-07T00:40:46.925Z,20.93
2023-03-07T00:42:49.688Z,19.63
2023-03-07T00:44:52.451Z,21.00
2023-03-07T00:46:55.287Z,20.57
2023-03-07T00:48:58.110Z,21.60
2023-03-07T00:51:01.308Z,21.23
2023-03-07T00:53:04.082Z,22.03
2023-03-07T00:55:08.142Z,21.87
2023-03-07T00:57:12.261Z,22.13
2023-03-07T00:59:16.176Z,21.43
2023-03-07T01:01:21.822Z,22.43
2023-03-07T01:03:27.273Z,23.43
2023-03-07T01:05:30.145Z,21.53
2023-03-07T01:07:33.167Z,21.97
2023-03-07T01:09:35.944Z,23.27
2023-03-07T01:11:38.897Z,22.87
2023-03-07T01:13:43.368Z,22.97
2023-03-07T01:15:46.159Z,22.47
2023-03-07T01:17:48.987Z,22.27
2023-03-07T01:19:51.902Z,23.57
2023-03-07T01:21:55.310Z,23.53
2023-03-07T01:23:58.328Z,22.73
2023-03-07T01:26:01.073Z,23.87
2023-03-07T01:28:04.426Z,23.73
2023-03-07T01:30:11.702Z,23.77
2023-03-07T01:32:14.801Z,23.73
2023-03-07T01:34:17.641Z,23.17
2023-03-07T01:36:25.163Z,23.90
2023-03-07T01:38:28.894Z,24.67
2023-03-07T01:40:31.737Z,24.83
2023-03-07T01:42:34.553Z,24.90
2023-03-07T01:45:02.382Z,24.63
2023-03-07T01:47:06.642Z,25.23
2023-03-07T01:49:13.842Z,25.20
2023-03-07T01:51:17.032Z,26.17
2023-03-07T01:53:20.057Z,26.67
2023-03-07T01:55:26.681Z,25.50
2023-03-07T01:57:33.137Z,25.80
2023-03-07T01:59:41.876Z,26.97
2023-03-07T02:01:44.818Z,27.57
2023-03-07T02:03:53.250Z,27.20
2023-03-07T02:05:59.461Z,28.10
2023-03-07T02:08:03.739Z,29.23
2023-03-07T02:10:07.779Z,29.20
2023-03-07T02:12:11.906Z,30.63
2023-03-07T02:14:14.718Z,30.23
2023-03-07T02:16:17.869Z,28.67
2023-03-07T02:18:26.230Z,30.07
2023-03-07T02:20:40.038Z,30.47
2023-03-07T02:22:43.285Z,28.87
2023-03-07T02:24:52.391Z,29.57
2023-03-07T02:26:57.840Z,29.07
2023-03-07T02:29:02.315Z,30.33
2023-03-07T02:31:08.407Z,29.57
2023-03-07T02:33:11.216Z,29.77
2023-03-07T02:35:16.372Z,30.40
2023-03-07T02:37:22.434Z,31.90
2023-03-07T02:39:30.042Z,31.57
2023-03-07T02:41:35.166Z,31.07
2023-03-07T02:43:39.779Z,31.30
2023-03-07T02:45:42.558Z,33.23
2023-03-07T02:47:46.267Z,34.40
2023-03-07T02:49:49.332Z,33.23
2023-03-07T02:51:57.465Z,35.60
2023-03-07T02:54:00.273Z,35.90
2023-03-07T02:56:03.729Z,36.90
2023-03-07T02:58:07.089Z,36.77
2023-03-07T03:00:13.210Z,38.23
2023-03-07T03:02:16.228Z,40.43
2023-03-07T03:04:19.137Z,40.03
2023-03-07T03:06:21.961Z,41.07
2023-03-07T03:08:25.120Z,42.30
2023-03-07T03:10:28.008Z,43.00
2023-03-07T03:12:30.903Z,43.73
2023-03-07T03:14:34.040Z,43.10
2023-03-07T03:16:39.662Z,44.00
2023-03-07T03:18:42.613Z,45.00
2023-03-07T03:20:45.457Z,46.37
2023-03-07T03:22:48.328Z,43.97
2023-03-07T03:24:51.313Z,46.13
2023-03-07T03:26:56.890Z,47.07
2023-03-07T03:28:59.768Z,43.63
2023-03-07T03:31:06.787Z,44.23
2023-03-07T03:33:11.574Z,45.07
2023-03-07T03:35:14.632Z,45.97
2023-03-07T03:37:17.597Z,45.57
2023-03-07T03:39:20.929Z,47.40
2023-03-07T03:41:24.323Z,45.33
2023-03-07T03:43:27.204Z,44.93
2023-03-07T03:45:30.081Z,45.63
2023-03-07T03:47:32.885Z,47.37
2023-03-07T03:49:37.002Z,45.57
2023-03-07T03:51:40.038Z,45.30
2023-03-07T03:53:43.303Z,44.30
2023-03-07T03:55:46.279Z,45.23
2023-03-07T03:57:49.172Z,47.40
2023-03-07T03:59:52.580Z,43.70
2023-03-07T04:01:55.838Z,46.80
2023-03-07T04:03:59.181Z,45.77
2023-03-07T04:06:06.142Z,45.97
2023-03-07T04:08:10.080Z,45.40
2023-03-07T04:10:13.194Z,44.20
2023-03-07T04:12:15.968Z,44.97
2023-03-07T04:14:18.822Z,46.80
2023-03-07T04:16:23.440Z,43.53
2023-03-07T04:18:26.563Z,45.03
2023-03-07T04:20:29.442Z,44.23
2023-03-07T04:22:33.761Z,42.50
2023-03-07T04:24:36.729Z,43.23
2023-03-07T04:26:39.639Z,42.43
2023-03-07T04:28:44.959Z,43.00
2023-03-07T04:30:49.733Z,43.30
2023-03-07T04:32:52.882Z,41.30
2023-03-07T04:34:55.756Z,39.73
2023-03-07T04:36:58.838Z,40.73
2023-03-07T04:39:03.382Z,41.70
2023-03-07T04:41:06.819Z,40.70
2023-03-07T04:43:09.832Z,40.57
2023-03-07T04:45:12.812Z,39.40
2023-03-07T04:47:15.725Z,39.40
2023-03-07T04:49:18.745Z,39.77
2023-03-07T04:51:21.683Z,41.70
2023-03-07T04:53:24.798Z,40.20
2023-03-07T04:55:29.027Z,36.73
2023-03-07T04:57:31.823Z,38.80
2023-03-07T04:59:38.956Z,39.50
2023-03-07T05:01:41.844Z,39.57
2023-03-07T05:03:44.956Z,37.00
2023-03-07T05:05:47.969Z,38.30
2023-03-07T05:07:50.935Z,38.23
2023-03-07T05:09:53.846Z,39.67
2023-03-07T05:11:58.144Z,38.83
2023-03-07T05:14:00.994Z,36.77
2023-03-07T05:16:03.991Z,39.83
2023-03-07T05:18:07.251Z,38.97
2023-03-07T05:20:12.948Z,39.23
2023-03-07T05:22:15.851Z,39.77
2023-03-07T05:24:20.100Z,39.70
2023-03-07T05:26:22.997Z,40.00
2023-03-07T05:28:27.405Z,41.27
2023-03-07T05:30:30.300Z,39.63
2023-03-07T05:32:33.825Z,38.77
2023-03-07T05:34:37.964Z,41.17
2023-03-07T05:36:40.788Z,39.43
2023-03-07T05:38:43.660Z,40.13
2023-03-07T05:40:50.141Z,41.13
2023-03-07T05:42:52.950Z,40.53
2023-03-07T05:44:57.285Z,40.83
2023-03-07T05:47:00.212Z,39.27
2023-03-07T05:49:03.116Z,40.43
2023-03-07T05:51:06.378Z,39.27
2023-03-07T05:53:09.327Z,37.97
2023-03-07T05:55:12.375Z,40.87
2023-03-07T05:57:15.223Z,41.53
2023-03-07T05:59:18.262Z,40.27
2023-03-07T06:01:22.584Z,41.70
2023-03-07T06:03:25.597Z,42.37
2023-03-07T06:05:28.684Z,41.67
2023-03-07T06:07:31.779Z,41.60
2023-03-07T06:09:34.843Z,41.20
2023-03-07T06:11:49.714Z,39.93
2023-03-07T06:14:18.131Z,41.40
2023-03-07T06:16:53.488Z,40.67
2023-03-07T06:19:10.964Z,41.07
2023-03-07T06:21:37.953Z,43.53
2023-03-07T06:24:35.191Z,41.70
2023-03-07T06:27:42.611Z,41.50
2023-03-07T06:32:57.701Z,43.00
2023-03-07T06:35:26.263Z,42.13
2023-03-07T06:37:48.759Z,43.30
2023-03-07T06:40:01.031Z,43.50
2023-03-07T06:42:31.385Z,44.13
2023-03-07T06:44:43.856Z,41.70
2023-03-07T06:47:00.644Z,42.40
2023-03-07T06:49:32.876Z,43.33
2023-03-07T06:51:38.081Z,43.53
2023-03-07T06:54:00.217Z,42.57
2023-03-07T06:58:47.178Z,42.90
2023-03-07T07:00:51.114Z,42.07
2023-03-07T07:03:09.543Z,40.80
2023-03-07T07:05:17.229Z,40.80
2023-03-07T07:07:21.754Z,39.67
2023-03-07T07:09:35.825Z,39.57
2023-03-07T07:12:19.025Z,38.93
2023-03-07T07:14:28.770Z,36.90
2023-03-07T07:16:44.476Z,37.23
2023-03-07T07:18:51.156Z,37.13
2023-03-07T07:20:59.440Z,36.57
2023-03-07T07:23:04.348Z,34.97
2023-03-07T07:25:15.902Z,34.93
2023-03-07T07:30:27.208Z,31.87
2023-03-07T07:32:31.466Z,31.67
2023-03-07T07:34:36.581Z,31.80
2023-03-07T07:39:32.828Z,31.07
2023-03-07T07:41:47.590Z,29.83
2023-03-07T07:43:57.518Z,29.27
2023-03-07T07:46:05.080Z,28.37
2023-03-07T07:48:23.434Z,28.43
2023-03-07T07:50:41.183Z,28.50
2023-03-07T07:52:44.732Z,29.30
2023-03-07T07:55:04.124Z,25.87
2023-03-07T07:57:22.433Z,24.13
2023-03-07T07:59:26.045Z,24.67
2023-03-07T08:01:30.628Z,22.80
2023-03-07T08:03:33.931Z,23.63
2023-03-07T08:05:41.465Z,22.17
2023-03-07T08:07:44.634Z,21.73
2023-03-07T08:09:53.605Z,20.13
2023-03-07T08:11:59.486Z,20.40
2023-03-07T08:14:08.310Z,18.60
2023-03-07T08:16:13.484Z,18.00
2023-03-07T08:18:19.017Z,16.70
2023-03-07T08:20:31.290Z,17.90
2023-03-07T08:22:38.396Z,16.77
2023-03-07T08:24:43.246Z,16.80
2023-03-07T08:26:55.200Z,16.57
2023-03-07T08:29:36.953Z,16.77
2023-03-07T08:32:03.513Z,16.83
2023-03-07T08:34:35.902Z,16.63
2023-03-07T08:39:25.803Z,16.27
2023-03-07T08:41:39.268Z,15.80
2023-03-07T08:44:12.772Z,16.87
2023-03-07T08:46:39.994Z,16.17
2023-03-07T08:48:56.604Z,16.07
2023-03-07T08:54:17.275Z,14.73
2023-03-07T08:56:46.695Z,15.70
2023-03-07T08:58:57.556Z,14.93
2023-03-07T09:01:17.542Z,15.80
2023-03-07T09:03:31.735Z,15.33
2023-03-07T09:06:01.292Z,15.73
2023-03-07T09:10:47.698Z,15.30
2023-03-07T09:12:56.139Z,15.53
2023-03-07T09:14:59.793Z,14.20
2023-03-07T09:17:09.639Z,14.83
2023-03-07T09:19:15.422Z,13.83
2023-03-07T09:21:23.149Z,13.60
2023-03-07T09:26:05.087Z,14.60
2023-03-07T09:28:09.407Z,13.40
2023-03-07T09:30:14.749Z,14.50
2023-03-07T09:32:24.730Z,13.23
2023-03-07T09:34:32.689Z,13.07
2023-03-07T09:36:45.429Z,13.30
2023-03-07T09:38:49.392Z,12.80
2023-03-07T09:40:52.908Z,12.80
2023-03-07T09:43:13.133Z,12.00
2023-03-07T09:45:25.397Z,12.43
2023-03-07T09:48:02.683Z,12.23
2023-03-07T09:50:13.136Z,10.00
2023-03-07T09:52:24.339Z,10.20
2023-03-07T09:54:33.314Z,10.60
2023-03-07T09:56:41.880Z,10.03
2023-03-07T09:58:49.956Z,10.23
2023-03-07T10:00:57.620Z,10.23
2023-03-07T10:03:39.927Z,9.90
2023-03-07T10:05:51.726Z,10.47
2023-03-07T10:08:18.371Z,9.87
2023-03-07T10:10:44.225Z,10.20
2023-03-07T10:13:09.104Z,9.93
2023-03-07T10:16:04.052Z,9.60
2023-03-07T10:18:41.921Z,9.53
2023-03-07T10:21:04.346Z,9.17
2023-03-07T10:23:54.524Z,9.60
2023-03-07T10:29:36.758Z,9.47
2023-03-07T10:32:09.947Z,9.47
2023-03-07T10:34:35.426Z,10.17
2023-03-07T10:37:08.108Z,9.60
2023-03-07T10:39:24.639Z,10.20
2023-03-07T10:41:28.681Z,9.93
2023-03-07T10:43:33.843Z,9.67
2023-03-07T10:45:38.359Z,9.87
2023-03-07T10:47:44.839Z,9.90
2023-03-07T10:49:53.983Z,9.33
2023-03-07T10:52:03.255Z,9.87
2023-03-07T10:54:11.961Z,9.70
2023-03-07T10:56:17.098Z,9.33
2023-03-07T10:58:26.056Z,8.87
2023-03-07T11:00:31.055Z,8.97
2023-03-07T11:02:37.270Z,8.93
2023-03-07T11:04:48.691Z,8.73
2023-03-07T11:06:56.259Z,8.90
2023-03-07T11:09:10.781Z,8.37
2023-03-07T11:11:26.424Z,8.50
2023-03-07T11:13:31.471Z,8.67
2023-03-07T11:15:35.245Z,9.23
2023-03-07T11:17:43.846Z,8.63
2023-03-07T11:19:48.289Z,8.60
2023-03-07T11:21:55.132Z,7.90
2023-03-07T11:24:07.030Z,8.13
2023-03-07T11:26:22.219Z,7.97
2023-03-07T11:28:34.875Z,8.33
2023-03-07T11:31:03.433Z,8.10
2023-03-07T11:33:14.110Z,7.70
2023-03-07T11:35:25.665Z,7.80
2023-03-07T11:37:32.356Z,7.37
2023-03-07T11:39:43.764Z,7.50
2023-03-07T11:41:49.575Z,7.60
2023-03-07T11:44:17.223Z,8.03
2023-03-07T11:46:32.155Z,7.17
2023-03-07T11:48:50.942Z,6.90
2023-03-07T11:50:57.309Z,7.07
2023-03-07T11:53:44.105Z,7.43
2023-03-07T11:55:59.226Z,6.77
2023-03-07T11:58:23.945Z,6.60
2023-03-07T12:00:33.615Z,6.97
2023-03-07T12:03:01.377Z,6.80
2023-03-07T12:05:17.318Z,7.97
2023-03-07T12:07:48.202Z,8.10
2023-03-07T12:09:58.852Z,7.90
2023-03-07T12:12:23.605Z,8.03
2023-03-07T12:14:38.964Z,7.07
2023-03-07T12:16:52.522Z,7.30
2023-03-07T12:19:13.468Z,8.10
2023-03-07T12:21:30.109Z,7.27
2023-03-07T12:23:42.331Z,6.23
2023-03-07T12:25:50.563Z,6.33
2023-03-07T12:28:07.773Z,6.40
2023-03-07T12:30:22.289Z,5.90
2023-03-07T12:32:27.228Z,5.70
2023-03-07T12:34:48.156Z,5.70
2023-03-07T12:36:55.297Z,5.30
2023-03-07T12:39:04.853Z,5.73
2023-03-07T12:41:24.146Z,5.77
2023-03-07T12:43:34.489Z,5.90
2023-03-07T12:45:42.460Z,6.03
2023-03-07T12:47:57.053Z,6.17
2023-03-07T12:50:05.830Z,6.77
2023-03-07T12:52:21.273Z,6.70
2023-03-07T12:54:30.563Z,6.03
2023-03-07T12:56:42.695Z,6.87
2023-03-07T12:58:54.641Z,6.27
2023-03-07T13:01:04.135Z,6.87
2023-03-07T13:03:08.307Z,5.77
2023-03-07T13:05:20.608Z,6.40
2023-03-07T13:07:27.000Z,6.17
2023-03-07T13:09:33.383Z,6.30
2023-03-07T13:11:36.690Z,5.30
2023-03-07T13:13:58.390Z,6.00
2023-03-07T13:16:14.914Z,5.70
2023-03-07T13:18:29.423Z,5.73
2023-03-07T13:21:24.182Z,5.73
2023-03-07T13:23:29.771Z,5.33
2023-03-07T13:26:07.213Z,5.83
2023-03-07T13:28:34.488Z,5.57
2023-03-07T13:30:39.734Z,5.23
2023-03-07T13:33:02.926Z,5.90
2023-03-07T13:35:10.188Z,5.20
2023-03-07T13:38:05.059Z,5.53
2023-03-07T13:40:27.304Z,5.20
2023-03-07T13:42:47.711Z,4.83
2023-03-07T13:45:03.861Z,4.50
2023-03-07T13:47:44.413Z,4.00
2023-03-07T13:49:50.462Z,5.00
2023-03-07T13:52:51.164Z,4.77
2023-03-07T13:54:57.311Z,4.77
2023-03-07T13:57:02.748Z,4.70
2023-03-07T13:59:20.681Z,4.53
2023-03-07T14:01:28.379Z,4.57
2023-03-07T14:03:38.563Z,4.77
2023-03-07T14:05:43.184Z,4.33
2023-03-07T14:08:02.545Z,4.90
2023-03-07T14:10:22.525Z,4.57
2023-03-07T14:12:39.103Z,5.20
2023-03-07T14:14:59.886Z,4.47
2023-03-07T14:17:21.995Z,4.77
2023-03-07T14:19:51.182Z,4.80
2023-03-07T14:22:00.975Z,4.87
2023-03-07T14:24:23.325Z,4.80
2023-03-07T14:26:33.421Z,4.37
2023-03-07T14:28:36.902Z,5.30
2023-03-07T14:30:43.314Z,4.60
2023-03-07T14:32:49.587Z,4.43
2023-03-07T14:34:56.042Z,4.43
2023-03-07T14:37:06.718Z,5.13
2023-03-07T14:39:15.224Z,4.60
2023-03-07T14:41:29.327Z,4.93
2023-03-07T14:43:51.328Z,5.17
2023-03-07T14:46:02.210Z,4.87
2023-03-07T14:48:19.687Z,4.83
2023-03-07T14:50:27.783Z,5.30
2023-03-07T14:52:37.317Z,5.00
2023-03-07T14:54:40.664Z,5.23
2023-03-07T14:56:44.305Z,4.90
2023-03-07T14:58:53.816Z,5.20
2023-03-07T15:01:03.740Z,5.30
2023-03-07T15:03:11.520Z,5.13
2023-03-07T15:05:17.763Z,5.40
2023-03-07T15:07:23.841Z,5.60
2023-03-07T15:09:27.440Z,5.50
2023-03-07T15:11:34.725Z,5.37
2023-03-07T15:13:43.201Z,5.10
2023-03-07T15:15:50.266Z,5.13
2023-03-07T15:17:56.008Z,4.83
2023-03-07T15:20:01.599Z,5.40
2023-03-07T15:22:07.608Z,5.60
2023-03-07T15:24:19.456Z,5.70
2023-03-07T15:26:28.668Z,5.53
2023-03-07T15:28:35.292Z,5.53
2023-03-07T15:30:39.588Z,4.97
2023-03-07T15:32:45.612Z,5.33
2023-03-07T15:35:00.540Z,5.30
2023-03-07T15:37:30.051Z,5.27
2023-03-07T15:39:35.599Z,5.27
2023-03-07T15:41:38.960Z,5.40
2023-03-07T15:43:42.143Z,5.60
2023-03-07T15:45:58.630Z,5.60
2023-03-07T15:48:04.118Z,5.70
2023-03-07T15:50:20.783Z,4.93
2023-03-07T15:52:31.651Z,5.57
2023-03-07T15:54:40.236Z,5.50
2023-03-07T15:56:45.700Z,5.07
2023-03-07T15:58:49.397Z,6.03
2023-03-07T16:01:06.062Z,5.23
2023-03-07T16:03:25.860Z,5.57
2023-03-07T16:05:33.180Z,5.20
2023-03-07T16:07:36.382Z,5.03
2023-03-07T16:09:41.165Z,5.20
2023-03-07T16:11:47.329Z,5.37
2023-03-07T16:13:50.736Z,5.00
2023-03-07T16:16:05.712Z,4.83
2023-03-07T16:18:28.460Z,4.87
2023-03-07T16:20:31.532Z,4.40
2023-03-07T16:22:36.322Z,4.90
2023-03-07T16:24:42.727Z,5.00
2023-03-07T16:26:51.357Z,5.27
2023-03-07T16:28:55.283Z,4.70
2023-03-07T16:30:59.522Z,4.77
2023-03-07T16:33:02.682Z,5.20
2023-03-07T16:35:14.761Z,5.00
2023-03-07T16:37:18.449Z,5.47
2023-03-07T16:39:21.749Z,4.93
2023-03-07T16:41:26.258Z,5.10
2023-03-07T16:43:36.357Z,5.13
2023-03-07T16:45:41.145Z,5.03
2023-03-07T16:47:44.437Z,5.40
2023-03-07T16:49:49.040Z,5.33
2023-03-07T16:52:04.561Z,5.57
2023-03-07T16:54:08.644Z,5.27
2023-03-07T16:56:23.216Z,5.83
2023-03-07T16:58:30.559Z,5.47
2023-03-07T17:00:34.195Z,5.83
2023-03-07T17:02:37.580Z,5.13
2023-03-07T17:04:41.551Z,5.97
2023-03-07T17:07:00.928Z,5.40
2023-03-07T17:09:09.385Z,6.10
2023-03-07T17:11:19.801Z,5.93
2023-03-07T17:13:22.994Z,6.00
2023-03-07T17:15:30.990Z,6.80
2023-03-07T17:17:39.729Z,6.73
2023-03-07T17:19:43.032Z,7.43
2023-03-07T17:21:47.942Z,6.77
2023-03-07T17:23:51.688Z,6.90
2023-03-07T17:25:54.956Z,6.00
2023-03-07T17:28:02.329Z,6.70
2023-03-07T17:30:06.025Z,7.50
2023-03-07T17:32:10.945Z,6.57
2023-03-07T17:34:20.435Z,7.30
2023-03-07T17:36:27.206Z,8.07
2023-03-07T17:38:30.474Z,7.27
2023-03-07T17:40:33.564Z,7.30
2023-03-07T17:42:37.059Z,7.50
2023-03-07T17:44:40.561Z,7.00
2023-03-07T17:46:46.294Z,7.20
2023-03-07T17:48:54.412Z,7.53
2023-03-07T17:50:57.571Z,7.43
2023-03-07T17:53:00.570Z,7.30
2023-03-07T17:55:03.765Z,6.80
2023-03-07T17:57:07.894Z,6.37
2023-03-07T17:59:11.095Z,7.53
2023-03-07T18:01:15.127Z,7.10
2023-03-07T18:03:18.212Z,6.90
2023-03-07T18:05:26.008Z,7.50
2023-03-07T18:07:29.396Z,7.57
2023-03-07T18:09:32.603Z,7.23
2023-03-07T18:11:36.262Z,7.67
2023-03-07T18:13:39.576Z,7.53
2023-03-07T18:15:46.453Z,7.10
2023-03-07T18:17:50.626Z,6.87
2023-03-07T18:19:53.774Z,7.43
2023-03-07T18:21:58.465Z,6.50
2023-03-07T18:24:01.810Z,7.07
2023-03-07T18:26:08.395Z,6.80
2023-03-07T18:28:11.669Z,6.80
2023-03-07T18:30:15.984Z,6.93
2023-03-07T18:32:19.520Z,6.97
2023-03-07T18:34:24.763Z,7.10
2023-03-07T18:36:28.388Z,7.23
2023-03-07T18:38:37.670Z,7.27
2023-03-07T18:40:42.545Z,7.40
2023-03-07T18:42:52.754Z,6.63
2023-03-07T18:44:55.979Z,7.37
2023-03-07T18:46:59.311Z,7.23
2023-03-07T18:49:02.676Z,7.57
2023-03-07T18:51:11.668Z,14.10
2023-03-07T18:53:15.138Z,8.67
2023-03-07T18:55:19.933Z,7.90
2023-03-07T18:57:25.760Z,7.97
2023-03-07T18:59:28.906Z,8.50
2023-03-07T19:01:33.306Z,6.27
2023-03-07T19:03:36.556Z,6.93
2023-03-07T19:05:43.702Z,7.80
2023-03-07T19:07:46.973Z,6.87
2023-03-07T19:09:53.610Z,5.63
2023-03-07T19:11:59.914Z,6.13
2023-03-07T19:14:05.284Z,6.33
2023-03-07T19:16:10.740Z,7.10
2023-03-07T19:18:13.956Z,6.30
2023-03-07T19:20:30.581Z,6.90
2023-03-07T19:22:35.686Z,5.80
2023-03-07T19:24:41.304Z,5.83
2023-03-07T19:26:54.890Z,6.30
2023-03-07T19:28:59.913Z,4.60
2023-03-07T19:31:11.119Z,11.97
2023-03-07T19:33:16.929Z,5.03
2023-03-07T19:35:24.839Z,5.17
2023-03-07T19:37:29.231Z,5.07
2023-03-07T19:39:32.841Z,4.47
2023-03-07T19:41:39.766Z,4.97
2023-03-07T19:43:49.222Z,3.87
2023-03-07T19:46:08.706Z,4.80
2023-03-07T19:48:40.741Z,4.70
2023-03-07T19:50:48.588Z,4.30
2023-03-07T19:52:56.721Z,5.20
2023-03-07T19:55:05.152Z,6.00
2023-03-07T19:57:16.351Z,5.67
2023-03-07T19:59:26.132Z,5.83
2023-03-07T20:01:32.877Z,6.20
2023-03-07T20:04:18.611Z,7.47
2023-03-07T20:06:39.296Z,8.07
2023-03-07T20:08:48.085Z,6.67
2023-03-07T20:11:08.829Z,7.57
2023-03-07T20:13:24.830Z,7.30
2023-03-07T20:16:48.236Z,6.60
2023-03-07T20:18:41.719Z,6.70
2023-03-07T20:20:50.826Z,7.30
2023-03-07T20:23:26.787Z,7.27
2023-03-07T20:28:59.216Z,7.53
2023-03-07T20:31:22.822Z,7.63
2023-03-07T20:33:36.220Z,6.93
2023-03-07T20:36:00.896Z,8.07
2023-03-07T20:38:21.062Z,7.43
2023-03-07T20:40:34.069Z,7.43
2023-03-07T20:42:41.864Z,8.00
2023-03-07T20:44:45.319Z,9.30
2023-03-07T20:47:07.332Z,9.87
2023-03-07T20:49:37.470Z,9.20
2023-03-07T20:51:47.631Z,8.80
2023-03-07T20:54:06.127Z,10.60
2023-03-07T20:56:17.852Z,10.73
2023-03-07T20:58:49.036Z,20.20
2023-03-07T21:01:12.420Z,13.20
2023-03-07T21:03:27.328Z,11.67
2023-03-07T21:05:39.171Z,9.33
2023-03-07T21:07:46.244Z,8.87
2023-03-07T21:09:58.255Z,9.03
2023-03-07T21:12:23.253Z,10.13
2023-03-07T21:14:37.270Z,10.97
2023-03-07T21:16:48.806Z,9.20
2023-03-07T21:19:00.302Z,9.97
2023-03-07T21:21:10.102Z,9.50
2023-03-07T21:23:15.133Z,8.90
2023-03-07T21:25:38.026Z,8.80
2023-03-07T21:27:42.820Z,8.73
2023-03-07T21:29:46.270Z,8.13
2023-03-07T21:31:49.683Z,6.93
2023-03-07T21:33:54.913Z,7.67
2023-03-07T21:35:58.506Z,8.27
2023-03-07T21:38:05.872Z,7.87
2023-03-07T21:40:10.363Z,7.73
2023-03-07T21:42:13.705Z,6.37
2023-03-07T21:44:21.757Z,7.17
2023-03-07T21:46:25.777Z,7.90
2023-03-07T21:48:29.072Z,6.47
2023-03-07T21:50:32.521Z,7.37
2023-03-07T21:52:35.810Z,6.70
2023-03-07T21:54:41.381Z,6.97
2023-03-07T21:56:44.617Z,7.67
2023-03-07T21:58:49.784Z,6.97
2023-03-07T22:00:53.633Z,7.03
2023-03-07T22:02:59.620Z,6.53
2023-03-07T22:05:06.439Z,7.13
2023-03-07T22:07:09.770Z,6.83
2023-03-07T22:09:13.163Z,7.13
2023-03-07T22:11:17.962Z,6.77
2023-03-07T22:13:21.246Z,6.50
2023-03-07T22:15:24.540Z,6.50
2023-03-07T22:17:30.032Z,6.00
2023-03-07T22:19:33.403Z,7.67
2023-03-07T22:21:36.614Z,6.40
2023-03-07T22:23:39.912Z,5.60
2023-03-07T22:25:46.041Z,6.50
2023-03-07T22:27:52.274Z,5.63
2023-03-07T22:29:57.876Z,5.73
2023-03-07T22:32:01.240Z,5.40
2023-03-07T22:34:09.924Z,5.67
2023-03-07T22:36:17.478Z,5.90
2023-03-07T22:38:31.513Z,5.30
2023-03-07T22:40:41.674Z,5.43
2023-03-07T22:42:45.090Z,5.63
2023-03-07T22:45:09.090Z,5.37
2023-03-07T22:47:23.792Z,4.93
2023-03-07T22:49:27.878Z,5.23
2023-03-07T22:51:50.721Z,4.97
2023-03-07T22:53:57.325Z,5.83
2023-03-07T22:56:02.663Z,4.93
2023-03-07T22:58:08.269Z,5.40
2023-03-07T23:00:39.115Z,5.30
2023-03-07T23:03:05.289Z,5.43
2023-03-07T23:05:09.218Z,5.03
2023-03-07T23:09:54.659Z,5.80
2023-03-07T23:12:03.155Z,5.37
2023-03-07T23:14:34.684Z,5.47
2023-03-07T23:17:18.379Z,5.73
2023-03-07T23:19:23.287Z,6.10
2023-03-07T23:21:28.964Z,6.03
2023-03-07T23:23:46.987Z,6.63
2023-03-07T23:25:50.340Z,7.00
2023-03-07T23:28:13.127Z,7.57
2023-03-07T23:30:17.643Z,7.40
2023-03-07T23:32:20.939Z,7.87
2023-03-07T23:34:25.737Z,7.80
2023-03-07T23:36:33.920Z,8.83
2023-03-07T23:38:37.104Z,8.50
2023-03-07T23:40:40.779Z,8.73
2023-03-07T23:42:44.013Z,8.57
2023-03-07T23:44:49.265Z,9.27
2023-03-07T23:46:52.400Z,9.53
2023-03-07T23:48:56.355Z,9.27
2023-03-07T23:51:01.131Z,9.70
2023-03-07T23:53:04.785Z,9.83
2023-03-07T23:55:09.655Z,10.07
2023-03-07T23:57:13.005Z,9.30
2023-03-07T23:59:16.292Z,10.67
